createdAt,value
2023-05-13T00:00:27.908Z,101063.38
2023-05-13T00:03:24.445Z,101067.00
2023-05-13T00:06:08.705Z,101068.20
2023-05-13T00:09:06.523Z,101066.91
2023-05-13T00:11:45.264Z,101067.76
2023-05-13T00:14:52.590Z,101070.14
2023-05-13T00:17:43.786Z,101068.44
2023-05-13T00:20:21.461Z,101070.73
2023-05-13T00:23:49.825Z,101073.34
2023-05-13T00:26:57.019Z,101072.98
2023-05-13T00:29:50.466Z,101069.60
2023-05-13T00:33:04.053Z,101071.27
2023-05-13T00:36:18.793Z,101074.59
2023-05-13T00:39:48.323Z,101072.04
2023-05-13T00:42:53.203Z,101074.16
2023-05-13T00:46:14.891Z,101073.73
2023-05-13T00:50:03.694Z,101079.23
2023-05-13T00:53:20.813Z,101079.84
2023-05-13T00:57:10.583Z,101072.76
2023-05-13T01:01:09.229Z,101074.77
2023-05-13T01:04:46.789Z,101078.19
2023-05-13T01:08:38.216Z,101081.59
2023-05-13T01:12:26.831Z,101089.55
2023-05-13T01:16:55.866Z,101100.89
2023-05-13T01:20:47.732Z,101094.16
2023-05-13T01:23:43.941Z,101092.85
2023-05-13T01:27:24.804Z,101090.36
2023-05-13T01:31:58.905Z,101096.55
2023-05-13T01:35:07.293Z,101096.47
2023-05-13T01:38:24.125Z,101101.98
2023-05-13T01:41:39.971Z,101093.12
2023-05-13T01:45:12.253Z,101099.72
2023-05-13T01:48:23.649Z,101099.08
2023-05-13T01:51:40.343Z,101102.73
2023-05-13T01:54:40.925Z,101106.31
2023-05-13T01:58:10.897Z,101100.63
2023-05-13T02:01:49.906Z,101106.14
2023-05-13T02:05:19.914Z,101110.73
2023-05-13T02:08:08.678Z,101112.75
2023-05-13T02:11:26.844Z,101113.58
2023-05-13T02:14:31.799Z,101113.89
2023-05-13T02:17:52.319Z,101110.38
2023-05-13T02:20:40.841Z,101110.66
2023-05-13T02:23:46.915Z,101111.83
2023-05-13T02:27:31.027Z,101105.64
2023-05-13T02:31:10.714Z,101107.04
2023-05-13T02:33:38.908Z,101106.34
2023-05-13T02:36:17.589Z,101103.73
2023-05-13T02:39:10.825Z,101106.00
2023-05-13T02:42:18.268Z,101114.02
2023-05-13T02:45:43.884Z,101111.38
2023-05-13T02:48:36.217Z,101113.25
2023-05-13T02:51:05.647Z,101113.23
2023-05-13T02:53:34.384Z,101112.85
2023-05-13T02:56:01.872Z,101113.15
2023-05-13T03:01:26.936Z,101114.79
2023-05-13T03:03:55.848Z,101116.48
2023-05-13T03:06:44.530Z,101119.23
2023-05-13T03:09:35.557Z,101122.13
2023-05-13T03:12:25.355Z,101123.27
2023-05-13T03:15:04.105Z,101124.41
2023-05-13T03:18:27.404Z,101128.92
2023-05-13T03:22:16.808Z,101123.50
2023-05-13T03:26:09.916Z,101127.92
2023-05-13T03:41:51.806Z,101132.41
2023-05-13T03:45:42.048Z,101134.71
2023-05-13T04:05:11.439Z,101142.31
2023-05-13T04:09:01.987Z,101146.41
2023-05-13T04:12:52.924Z,101149.20
2023-05-13T04:32:21.236Z,101155.73
2023-05-13T04:36:14.997Z,101159.95
2023-05-13T04:51:55.580Z,101161.59
2023-05-13T04:55:46.230Z,101162.59
2023-05-13T04:59:36.453Z,101165.36
2023-05-13T05:18:57.978Z,101167.06
2023-05-13T05:22:47.683Z,101170.20
2023-05-13T05:26:38.219Z,101170.90
2023-05-13T05:46:08.022Z,101176.77
2023-05-13T05:49:52.434Z,101181.19
2023-05-13T05:57:39.674Z,101180.87
2023-05-13T06:01:29.594Z,101179.95
2023-05-13T06:05:18.934Z,101173.91
2023-05-13T06:08:47.945Z,101173.95
2023-05-13T06:28:16.186Z,101180.05
2023-05-13T06:32:06.388Z,101176.83
2023-05-13T06:35:57.591Z,101173.83
2023-05-13T06:51:33.699Z,101171.37
2023-05-13T06:55:24.018Z,101169.81
2023-05-13T07:11:04.803Z,101178.77
2023-05-13T07:14:54.698Z,101176.13
2023-05-13T07:30:35.323Z,101168.73
2023-05-13T07:34:25.072Z,101171.56
2023-05-13T07:38:16.428Z,101165.56
2023-05-13T07:54:00.264Z,101158.64
2023-05-13T07:57:51.832Z,101155.95
2023-05-13T08:13:34.241Z,101145.20
2023-05-13T08:17:24.016Z,101144.11
2023-05-13T08:32:43.979Z,101133.77
2023-05-13T08:36:35.101Z,101135.60
2023-05-13T09:00:09.530Z,101120.78
2023-05-13T09:03:59.778Z,101114.04
2023-05-13T09:07:51.037Z,101110.31
2023-05-13T09:15:31.660Z,101103.61
2023-05-13T09:19:13.544Z,101104.73
2023-05-13T09:23:04.365Z,101105.29
2023-05-13T09:46:24.353Z,101099.34
2023-05-13T09:50:15.989Z,101097.95
2023-05-13T09:54:13.038Z,101092.36
2023-05-13T10:06:07.430Z,101083.54
2023-05-13T10:09:57.386Z,101082.68
2023-05-13T10:13:46.761Z,101079.05
2023-05-13T10:17:36.553Z,101068.69
2023-05-13T10:21:54.330Z,101070.77
2023-05-13T10:25:44.707Z,101070.06
2023-05-13T10:29:34.463Z,101067.39
2023-05-13T10:33:27.183Z,101067.21
2023-05-13T10:37:14.976Z,101067.45
2023-05-13T10:41:03.115Z,101066.42
2023-05-13T11:00:49.683Z,101066.92
2023-05-13T11:04:39.160Z,101057.03
2023-05-13T11:08:37.589Z,101057.49
2023-05-13T11:12:35.839Z,101049.04
2023-05-13T11:16:28.424Z,101051.27
2023-05-13T11:20:26.597Z,101046.20
2023-05-13T11:24:17.148Z,101040.17
2023-05-13T11:28:18.887Z,101033.65
2023-05-13T11:44:20.388Z,101047.10
2023-05-13T11:48:10.361Z,101042.67
2023-05-13T11:56:07.521Z,101041.36
2023-05-13T11:59:57.419Z,101034.98
2023-05-13T12:03:52.346Z,101037.61
2023-05-13T12:07:44.488Z,101033.27
2023-05-13T12:12:15.210Z,101027.71
2023-05-13T12:28:08.205Z,101016.34
2023-05-13T12:32:00.412Z,101020.20
2023-05-13T12:35:56.803Z,101022.09
2023-05-13T12:39:57.191Z,101023.95
2023-05-13T12:43:39.292Z,101024.49
2023-05-13T12:47:32.419Z,101025.16
2023-05-13T12:51:24.627Z,101021.46
2023-05-13T13:07:22.516Z,101006.39
2023-05-13T13:11:11.993Z,100998.79
2023-05-13T13:14:03.996Z,100990.32
2023-05-13T13:16:32.649Z,100990.08
2023-05-13T13:19:02.202Z,100987.59
2023-05-13T13:21:30.987Z,100980.03
2023-05-13T13:23:59.549Z,100978.58
2023-05-13T13:26:28.502Z,100982.92
2023-05-13T13:28:56.923Z,100984.11
2023-05-13T13:31:25.705Z,100983.73
2023-05-13T13:33:55.421Z,100990.64
2023-05-13T13:36:23.912Z,100988.84
2023-05-13T13:38:52.235Z,100986.71
2023-05-13T13:41:21.372Z,100989.30
2023-05-13T13:43:49.624Z,100985.73
2023-05-13T13:46:18.071Z,100987.36
2023-05-13T13:48:46.304Z,100989.48
2023-05-13T13:51:14.560Z,100993.25
2023-05-13T13:53:42.958Z,100989.83
2023-05-13T13:56:11.251Z,100991.65
2023-05-13T13:58:40.672Z,100991.65
2023-05-13T14:01:09.016Z,100987.61
2023-05-13T14:03:37.423Z,100986.08
2023-05-13T14:06:06.153Z,100986.62
2023-05-13T14:08:34.452Z,100985.30
2023-05-13T14:11:02.691Z,100983.60
2023-05-13T14:14:03.039Z,100985.37
2023-05-13T14:16:31.772Z,100980.56
2023-05-13T14:19:00.470Z,100976.98
2023-05-13T14:21:36.710Z,100970.59
2023-05-13T14:24:05.525Z,100972.61
2023-05-13T14:26:34.026Z,100972.61
2023-05-13T14:29:02.377Z,100972.72
2023-05-13T14:31:31.030Z,100970.48
2023-05-13T14:33:59.510Z,100964.80
2023-05-13T14:36:31.544Z,100961.30
2023-05-13T14:44:15.543Z,100949.86
2023-05-13T14:46:43.924Z,100943.19
2023-05-13T14:49:20.023Z,100938.36
2023-05-13T14:51:48.593Z,100936.62
2023-05-13T14:54:18.009Z,100937.23
2023-05-13T14:57:03.416Z,100930.90
2023-05-13T14:59:45.915Z,100939.35
2023-05-13T15:02:18.656Z,100943.52
2023-05-13T15:04:47.994Z,100946.73
2023-05-13T15:07:16.747Z,100945.96
2023-05-13T15:09:45.056Z,100948.95
2023-05-13T15:12:13.377Z,100949.01
2023-05-13T15:14:41.645Z,100957.86
2023-05-13T15:20:13.771Z,100957.16
2023-05-13T15:22:42.397Z,100951.15
2023-05-13T15:25:11.025Z,100949.73
2023-05-13T15:27:39.484Z,100946.85
2023-05-13T15:30:08.227Z,100943.23
2023-05-13T15:32:36.684Z,100939.11
2023-05-13T15:35:05.465Z,100940.98
2023-05-13T15:37:33.839Z,100936.98
2023-05-13T15:40:02.880Z,100935.27
2023-05-13T15:42:32.601Z,100933.88
2023-05-13T15:45:01.074Z,100937.30
2023-05-13T15:47:29.692Z,100931.07
2023-05-13T15:49:58.778Z,100932.98
2023-05-13T15:52:27.956Z,100931.96
2023-05-13T15:54:56.309Z,100932.27
2023-05-13T15:57:24.573Z,100937.73
2023-05-13T15:59:52.902Z,100934.62
2023-05-13T16:02:21.495Z,100942.54
2023-05-13T16:04:49.868Z,100943.67
2023-05-13T16:07:18.493Z,100944.93
2023-05-13T16:09:46.687Z,100939.06
2023-05-13T16:12:15.042Z,100939.19
2023-05-13T16:14:43.373Z,100937.17
2023-05-13T16:17:15.194Z,100929.11
2023-05-13T16:19:44.261Z,100924.23
2023-05-13T16:22:33.761Z,100922.02
2023-05-13T16:25:14.172Z,100921.73
2023-05-13T16:27:43.297Z,100921.48
2023-05-13T16:30:12.542Z,100917.87
2023-05-13T16:32:41.061Z,100921.46
2023-05-13T16:35:12.077Z,100918.16
2023-05-13T16:37:40.396Z,100920.34
2023-05-13T16:40:09.404Z,100919.70
2023-05-13T16:42:37.888Z,100918.52
2023-05-13T16:45:07.242Z,100917.77
2023-05-13T16:47:35.814Z,100913.83
2023-05-13T16:50:04.458Z,100908.98
2023-05-13T16:52:34.281Z,100911.45
2023-05-13T16:55:02.846Z,100913.04
2023-05-13T16:57:31.332Z,100910.94
2023-05-13T16:59:59.591Z,100909.16
2023-05-13T17:02:28.011Z,100912.77
2023-05-13T17:04:56.556Z,100916.20
2023-05-13T17:07:26.221Z,100914.27
2023-05-13T17:09:56.484Z,100914.14
2023-05-13T17:12:24.760Z,100911.17
2023-05-13T17:14:53.134Z,100913.20
2023-05-13T17:17:21.508Z,100913.49
2023-05-13T17:19:49.972Z,100918.07
2023-05-13T17:22:18.255Z,100919.70
2023-05-13T17:24:46.618Z,100918.30
2023-05-13T17:27:15.011Z,100913.83
2023-05-13T17:29:43.346Z,100917.66
2023-05-13T17:32:11.954Z,100914.19
2023-05-13T17:34:40.285Z,100914.27
2023-05-13T17:37:08.578Z,100915.21
2023-05-13T17:39:37.046Z,100918.30
2023-05-13T17:42:05.489Z,100915.17
2023-05-13T17:44:33.951Z,100919.13
2023-05-13T17:47:02.240Z,100919.70
2023-05-13T17:49:31.095Z,100921.31
2023-05-13T17:51:59.644Z,100922.06
2023-05-13T17:54:27.916Z,100927.63
2023-05-13T17:56:56.246Z,100925.15
2023-05-13T17:59:24.704Z,100925.88
2023-05-13T18:01:53.003Z,100929.44
2023-05-13T18:04:21.491Z,100930.34
2023-05-13T18:06:51.115Z,100930.89
2023-05-13T18:09:48.635Z,100928.27
2023-05-13T18:12:23.960Z,100931.14
2023-05-13T18:15:15.536Z,100924.62
2023-05-13T18:17:56.672Z,100929.11
2023-05-13T18:20:30.271Z,100935.19
2023-05-13T18:23:23.778Z,100937.91
2023-05-13T18:25:56.634Z,100939.38
2023-05-13T18:32:16.544Z,100942.54
2023-05-13T18:34:45.391Z,100946.69
2023-05-13T18:37:15.144Z,100947.98
2023-05-13T18:39:45.939Z,100957.48
2023-05-13T18:42:14.563Z,100959.69
2023-05-13T18:44:42.979Z,100959.16
2023-05-13T18:47:11.744Z,100962.49
2023-05-13T18:49:42.232Z,100965.25
2023-05-13T18:52:10.884Z,100969.43
2023-05-13T18:54:39.708Z,100971.30
2023-05-13T18:57:08.324Z,100969.63
2023-05-13T18:59:37.598Z,100968.10
2023-05-13T19:02:09.504Z,100970.61
2023-05-13T19:04:38.101Z,100970.48
2023-05-13T19:07:08.995Z,100970.71
2023-05-13T19:09:37.830Z,100971.45
2023-05-13T19:12:07.889Z,100976.46
2023-05-13T19:14:36.512Z,100980.73
2023-05-13T19:17:11.150Z,100982.74
2023-05-13T19:19:39.778Z,100983.53
2023-05-13T19:22:11.163Z,100985.88
2023-05-13T19:24:39.595Z,100987.70
2023-05-13T19:27:09.268Z,100992.52
2023-05-13T19:29:37.883Z,100987.31
2023-05-13T19:32:06.509Z,100991.08
2023-05-13T19:34:34.912Z,100993.09
2023-05-13T19:37:06.618Z,100991.73
2023-05-13T19:39:35.192Z,100993.55
2023-05-13T19:42:06.561Z,100989.71
2023-05-13T19:44:36.478Z,100996.44
2023-05-13T19:47:55.597Z,100994.17
2023-05-13T19:50:24.535Z,100998.88
2023-05-13T19:52:53.387Z,101000.17
2023-05-13T19:55:23.048Z,101000.55
2023-05-13T19:57:51.456Z,100996.70
2023-05-13T20:00:22.797Z,100998.66
2023-05-13T20:03:00.618Z,100996.74
2023-05-13T20:09:18.481Z,100994.66
2023-05-13T20:11:51.822Z,100994.14
2023-05-13T20:15:03.302Z,100990.95
2023-05-13T20:17:32.084Z,100987.98
2023-05-13T20:20:00.983Z,100984.12
2023-05-13T20:22:29.515Z,100986.27
2023-05-13T20:25:06.266Z,100986.12
2023-05-13T20:31:25.515Z,100984.21
2023-05-13T20:34:07.257Z,100982.27
2023-05-13T20:36:36.700Z,100982.46
2023-05-13T20:39:07.962Z,100982.28
2023-05-13T20:41:36.470Z,100984.95
2023-05-13T20:44:06.802Z,100981.07
2023-05-13T20:46:56.101Z,100982.30
2023-05-13T20:49:29.683Z,100979.13
2023-05-13T20:52:07.763Z,100979.84
2023-05-13T20:54:38.238Z,100978.61
2023-05-13T20:57:06.638Z,100978.63
2023-05-13T20:59:35.109Z,100979.68
2023-05-13T21:02:03.657Z,100981.27
2023-05-13T21:04:32.267Z,100980.91
2023-05-13T21:07:00.799Z,100983.75
2023-05-13T21:09:29.393Z,100984.45
2023-05-13T21:11:58.064Z,100984.10
2023-05-13T21:14:26.480Z,100987.97
2023-05-13T21:16:55.712Z,100987.63
2023-05-13T21:19:25.077Z,100983.39
2023-05-13T21:21:53.375Z,100985.66
2023-05-13T21:24:21.887Z,100989.70
2023-05-13T21:26:51.710Z,100991.08
2023-05-13T21:29:25.013Z,100988.60
2023-05-13T21:31:55.437Z,100991.41
2023-05-13T21:34:25.089Z,100992.45
2023-05-13T21:36:53.584Z,100989.45
2023-05-13T21:39:21.906Z,100991.35
2023-05-13T21:41:50.478Z,100988.34
2023-05-13T21:44:22.276Z,100992.52
2023-05-13T21:46:53.952Z,100997.42
2023-05-13T21:49:24.325Z,100996.01
2023-05-13T21:52:27.801Z,100998.27
2023-05-13T21:54:56.272Z,100998.75
2023-05-13T21:57:24.749Z,101004.02
2023-05-13T21:59:54.741Z,101002.73
2023-05-13T22:02:23.502Z,100997.98
2023-05-13T22:04:52.029Z,100993.39
2023-05-13T22:07:24.540Z,100999.53
2023-05-13T22:09:53.215Z,100997.23
2023-05-13T22:12:21.821Z,100993.70
2023-05-13T22:14:53.706Z,100987.73
2023-05-13T22:17:30.864Z,100991.23
2023-05-13T22:20:18.697Z,100989.44
2023-05-13T22:22:48.046Z,100991.52
2023-05-13T22:28:12.715Z,100990.77
2023-05-13T22:31:04.549Z,100985.63
2023-05-13T22:33:44.812Z,100986.48
2023-05-13T22:36:14.259Z,100984.02
2023-05-13T22:38:50.941Z,100983.84
2023-05-13T22:41:24.125Z,100980.14
2023-05-13T22:43:57.521Z,100982.23
2023-05-13T22:46:28.710Z,100978.00
2023-05-13T22:48:59.563Z,100977.29
2023-05-13T22:51:28.238Z,100979.91
2023-05-13T22:53:56.789Z,100984.30
2023-05-13T22:59:18.150Z,100983.41
2023-05-13T23:01:48.779Z,100979.20
2023-05-13T23:04:40.438Z,100985.86
2023-05-13T23:07:24.218Z,100981.29
2023-05-13T23:10:04.193Z,100979.37
2023-05-13T23:12:43.677Z,100980.06
2023-05-13T23:15:21.205Z,100981.81
2023-05-13T23:18:30.078Z,100975.50
2023-05-13T23:21:01.081Z,100977.59
2023-05-13T23:23:41.377Z,100968.98
2023-05-13T23:26:12.331Z,100968.27
2023-05-13T23:28:54.655Z,100968.80
2023-05-13T23:31:34.905Z,100964.77
2023-05-13T23:34:15.578Z,100966.70
2023-05-13T23:36:47.037Z,100960.19
2023-05-13T23:39:22.162Z,100957.21
2023-05-13T23:41:54.203Z,100961.09
2023-05-13T23:44:22.693Z,100954.93
2023-05-13T23:47:12.092Z,100953.00
2023-05-13T23:50:06.072Z,100953.89
2023-05-13T23:52:51.392Z,100950.20
2023-05-13T23:55:20.036Z,100948.97
2023-05-13T23:57:48.991Z,100951.26
